Time;durP1;ratioP1;P1;durP2;ratioP2;P2;SDS_P1;SDS_P2;PMS_P1;PMS_P2;Temp;Humidity;BMP_temperature;BMP_pressure;BME280_temperature;BME280_humidity;BME280_pressure;Samples;Min_cycle;Max_cycle;Signal;HPM_P1;HPM_P2
2022/09/05 00:00:25;;;;;;;2.60;1.80;;;;;;;15.12;100.00;100823.34;5059898;28;20037;-73
2022/09/05 00:03:35;;;;;;;4.70;3.03;;;;;;;15.27;100.00;100854.19;5032682;28;20044;-73
2022/09/05 00:06:09;;;;;;;13.07;2.95;;;;;;;15.24;100.00;100856.16;5046497;28;20541;-73
2022/09/05 00:09:12;;;;;;;6.63;2.83;;;;;;;15.19;100.00;100856.44;5053935;28;20033;-73
2022/09/05 00:11:49;;;;;;;5.72;3.08;;;;;;;15.06;100.00;100836.13;5059259;28;20479;-72
2022/09/05 00:14:36;;;;;;;7.95;3.30;;;;;;;15.11;100.00;100853.41;5058574;28;20429;-73
2022/09/05 00:17:17;;;;;;;5.10;2.80;;;;;;;15.10;100.00;100850.88;5043650;28;20472;-73
2022/09/05 00:20:00;;;;;;;5.30;3.53;;;;;;;15.00;100.00;100840.00;5051721;28;20040;-72
2022/09/05 00:22:35;;;;;;;7.53;3.33;;;;;;;15.05;100.00;100848.50;5052993;28;20032;-73
2022/09/05 00:25:23;;;;;;;4.57;2.70;;;;;;;15.04;100.00;100852.06;5049189;28;20282;-72
2022/09/05 00:28:06;;;;;;;3.92;2.63;;;;;;;14.99;100.00;100853.31;5028494;28;20530;-72
2022/09/05 00:30:43;;;;;;;4.65;2.83;;;;;;;14.92;100.00;100844.03;5051618;28;20464;-72
2022/09/05 00:33:27;;;;;;;4.90;3.20;;;;;;;14.94;100.00;100852.75;5056127;28;20032;-73
2022/09/05 00:36:05;;;;;;;4.07;2.55;;;;;;;14.92;100.00;100844.91;5052621;28;20538;-72
2022/09/05 00:38:31;;;;;;;6.25;3.03;;;;;;;14.90;100.00;100846.78;5016926;28;20479;-73
2022/09/05 00:41:03;;;;;;;3.85;2.80;;;;;;;14.91;100.00;100851.13;5053904;28;20072;-73
2022/09/05 00:43:34;;;;;;;5.05;3.22;;;;;;;14.86;100.00;100832.03;5052873;28;20021;-72
2022/09/05 00:46:03;;;;;;;6.53;2.88;;;;;;;14.84;100.00;100836.56;5066576;28;20032;-72
2022/09/05 00:48:50;;;;;;;4.07;2.75;;;;;;;14.83;100.00;100842.81;5049635;28;20104;-73
2022/09/05 00:51:20;;;;;;;9.88;2.83;;;;;;;14.81;100.00;100845.53;5050833;28;20491;-72
2022/09/05 00:54:17;;;;;;;4.25;2.67;;;;;;;14.74;100.00;100833.63;5048105;28;20036;-72
2022/09/05 00:57:19;;;;;;;4.65;2.60;;;;;;;14.82;100.00;100841.09;5041654;28;20120;-72
2022/09/05 01:00:07;;;;;;;16.65;3.08;;;;;;;14.80;100.00;100840.38;5050553;28;20082;-72
2022/09/05 01:03:08;;;;;;;5.30;2.75;;;;;;;14.80;100.00;100854.41;5052190;28;20025;-73
2022/09/05 01:06:03;;;;;;;4.13;2.70;;;;;;;14.80;100.00;100853.59;5052795;28;20500;-73
2022/09/05 01:08:59;;;;;;;4.80;3.00;;;;;;;14.80;100.00;100841.19;5048886;28;20016;-72
2022/09/05 01:11:39;;;;;;;4.28;2.88;;;;;;;14.67;100.00;100815.56;5048059;28;20017;-72
2022/09/05 01:14:10;;;;;;;5.38;2.55;;;;;;;14.77;100.00;100837.88;5051608;28;20376;-72
2022/09/05 01:16:54;;;;;;;9.82;3.58;;;;;;;14.76;100.00;100833.53;5052200;28;20040;-72
2022/09/05 01:19:36;;;;;;;4.70;2.88;;;;;;;14.59;100.00;100812.53;5050232;28;20044;-72
2022/09/05 01:22:33;;;;;;;5.32;3.20;;;;;;;14.77;100.00;100832.59;5040822;28;20041;-73
2022/09/05 01:25:16;;;;;;;8.20;3.72;;;;;;;14.75;100.00;100840.63;5036555;28;20476;-73
2022/09/05 01:27:55;;;;;;;5.00;3.03;;;;;;;14.76;100.00;100836.19;5051655;28;20029;-73
2022/09/05 01:30:39;;;;;;;5.18;3.45;;;;;;;14.73;100.00;100831.09;5052613;28;20035;-72
2022/09/05 01:33:36;;;;;;;6.45;2.95;;;;;;;14.68;100.00;100833.16;5051268;28;20029;-72
2022/09/05 01:36:10;;;;;;;4.97;3.35;;;;;;;14.66;100.00;100835.03;5049379;28;20032;-73
2022/09/05 01:38:35;;;;;;;;;;;;;;;14.66;100.00;100837.69;5052515;28;20029;-73
2022/09/05 01:41:47;;;;;;;4.90;3.00;;;;;;;14.64;100.00;100828.97;5051947;28;19934;-73
2022/09/05 01:44:30;;;;;;;4.50;2.70;;;;;;;14.62;100.00;100837.03;5051233;28;20278;-73
2022/09/05 01:47:36;;;;;;;3.97;2.70;;;;;;;14.59;100.00;100833.72;5051621;28;20045;-73
2022/09/05 01:50:08;;;;;;;4.85;3.10;;;;;;;14.55;100.00;100832.19;5050470;28;20029;-73
2022/09/05 01:53:15;;;;;;;4.10;2.92;;;;;;;14.49;100.00;100827.25;5049288;28;20071;-72
2022/09/05 01:55:43;;;;;;;4.95;2.95;;;;;;;14.49;100.00;100836.06;5043479;28;20048;-72
2022/09/05 01:58:14;;;;;;;4.93;3.00;;;;;;;14.53;100.00;100834.06;5051015;28;20040;-73
2022/09/05 02:00:54;;;;;;;7.18;3.50;;;;;;;14.57;100.00;100846.16;5051766;28;20048;-72
2022/09/05 02:03:41;;;;;;;4.72;3.20;;;;;;;14.57;100.00;100840.88;5049553;28;20045;-73
2022/09/05 02:06:25;;;;;;;7.60;2.80;;;;;;;14.49;100.00;100824.63;5045218;28;20029;-73
2022/09/05 02:08:59;;;;;;;5.05;3.03;;;;;;;14.51;100.00;100831.50;5045081;28;20059;-73
2022/09/05 02:11:40;;;;;;;5.72;2.55;;;;;;;14.56;100.00;100839.19;5038086;28;20108;-73
2022/09/05 02:14:19;;;;;;;6.30;2.60;;;;;;;14.55;100.00;100834.81;5051216;28;20387;-72
2022/09/05 02:16:45;;;;;;;8.20;2.85;;;;;;;14.52;100.00;100827.94;5051356;28;20487;-72
2022/09/05 02:19:30;;;;;;;5.60;2.80;;;;;;;14.56;100.00;100840.03;5035854;28;20036;-72
2022/09/05 02:22:16;;;;;;;4.50;2.90;;;;;;;14.47;100.00;100834.41;5040124;28;20553;-73
2022/09/05 02:24:44;;;;;;;6.65;3.35;;;;;;;14.49;100.00;100836.06;5049180;28;20056;-72
2022/09/05 02:27:12;;;;;;;5.47;3.13;;;;;;;14.49;100.00;100837.84;5049668;28;20070;-72
2022/09/05 02:29:59;;;;;;;5.22;3.20;;;;;;;14.35;100.00;100816.66;5051247;28;20037;-73
2022/09/05 02:33:04;;;;;;;5.47;3.05;;;;;;;14.44;100.00;100837.25;5059661;28;20052;-73
2022/09/05 02:35:42;;;;;;;3.92;2.95;;;;;;;14.45;100.00;100836.31;5038160;28;20068;-72
2022/09/05 02:38:15;;;;;;;6.88;2.90;;;;;;;14.41;100.00;100834.78;5050639;28;20033;-73
2022/09/05 02:40:53;;;;;;;7.47;3.37;;;;;;;14.38;100.00;100829.69;5049862;28;20165;-73
2022/09/05 02:43:18;;;;;;;5.07;3.00;;;;;;;14.45;100.00;100839.81;5042071;28;20378;-72
2022/09/05 02:45:56;;;;;;;13.75;3.15;;;;;;;14.44;100.00;100839.88;5050851;28;20104;-72
2022/09/05 02:48:45;;;;;;;3.92;2.53;;;;;;;14.41;100.00;100840.06;5051296;28;20024;-72
2022/09/05 02:51:44;;;;;;;7.80;3.40;;;;;;;14.37;100.00;100834.13;5061089;28;20033;-72
2022/09/05 02:54:12;;;;;;;5.63;3.10;;;;;;;14.24;100.00;100818.09;5026762;28;20035;-72
2022/09/05 02:56:50;;;;;;;4.05;2.63;;;;;;;14.31;100.00;100835.31;5050946;28;20072;-73
2022/09/05 02:59:52;;;;;;;6.25;3.60;;;;;;;14.31;100.00;100837.94;5048119;28;20057;-73
2022/09/05 03:02:39;;;;;;;5.22;2.95;;;;;;;14.31;100.00;100839.72;5049958;28;20025;-73
2022/09/05 03:05:17;;;;;;;4.22;2.85;;;;;;;14.14;100.00;100819.56;5050381;28;20056;-73
2022/09/05 03:07:51;;;;;;;7.55;3.42;;;;;;;14.13;100.00;100823.16;5036052;28;20494;-73
2022/09/05 03:10:39;;;;;;;4.72;3.53;;;;;;;14.20;100.00;100837.72;5049785;28;20049;-73
2022/09/05 03:13:16;;;;;;;6.38;3.25;;;;;;;14.17;100.00;100827.31;5039226;28;20111;-73
2022/09/05 03:16:06;;;;;;;6.38;3.83;;;;;;;14.12;100.00;100839.97;5064158;28;20036;-72
2022/09/05 03:19:25;;;;;;;5.47;3.20;;;;;;;14.10;100.00;100836.53;5050713;28;20025;-73
2022/09/05 03:22:21;;;;;;;8.68;3.45;;;;;;;14.12;100.00;100833.81;5047863;28;20434;-73
2022/09/05 03:25:28;;;;;;;5.88;3.40;;;;;;;14.11;100.00;100842.69;5028919;28;20045;-72
2022/09/05 03:28:25;;;;;;;4.53;3.17;;;;;;;14.03;100.00;100824.63;5048769;28;20037;-73
2022/09/05 03:31:32;;;;;;;9.13;3.20;;;;;;;14.09;100.00;100826.06;5050866;28;20027;-72
2022/09/05 03:34:16;;;;;;;5.15;3.03;;;;;;;13.90;100.00;100802.47;5045283;28;20116;-72
2022/09/05 03:37:19;;;;;;;6.28;3.33;;;;;;;14.10;100.00;100825.97;5050152;28;20065;-73
2022/09/05 03:39:44;;;;;;;4.82;3.45;;;;;;;14.12;100.00;100829.41;5052095;28;20498;-72
2022/09/05 03:42:25;;;;;;;6.18;3.15;;;;;;;14.09;100.00;100818.97;5050820;28;20078;-72
2022/09/05 03:44:59;;;;;;;4.90;3.35;;;;;;;14.03;100.00;100818.47;5040661;28;20506;-72
2022/09/05 03:47:43;;;;;;;;;;;;;;;14.05;100.00;100828.03;5049324;28;20418;-72
2022/09/05 03:50:36;;;;;;;5.60;3.90;;;;;;;13.76;100.00;100789.22;5049579;28;19915;-72
2022/09/05 03:53:20;;;;;;;5.95;3.80;;;;;;;14.06;100.00;100831.53;5051920;28;20036;-71
2022/09/05 03:56:42;;;;;;;4.97;3.00;;;;;;;13.95;100.00;100821.59;5049412;28;20055;-72
2022/09/05 03:59:26;;;;;;;5.25;3.38;;;;;;;14.03;100.00;100834.34;5030386;28;20057;-72
2022/09/05 04:01:56;;;;;;;5.60;3.10;;;;;;;14.01;100.00;100833.59;5030697;28;20044;-72
2022/09/05 04:04:34;;;;;;;4.95;3.13;;;;;;;13.93;100.00;100823.44;5041862;28;20466;-72
2022/09/05 04:07:04;;;;;;;5.38;3.58;;;;;;;13.89;100.00;100821.09;5052368;28;20037;-72
2022/09/05 04:09:39;;;;;;;6.38;3.53;;;;;;;13.92;100.00;100832.34;5053960;28;20029;-72
2022/09/05 04:12:13;;;;;;;5.43;3.53;;;;;;;13.96;100.00;100841.75;5032572;28;20025;-72
2022/09/05 04:14:48;;;;;;;4.85;3.45;;;;;;;13.84;100.00;100823.97;5042888;28;20059;-72
2022/09/05 04:17:38;;;;;;;6.43;3.78;;;;;;;13.94;100.00;100840.16;5051097;28;20032;-72
2022/09/05 04:20:13;;;;;;;4.90;3.05;;;;;;;13.90;100.00;100826.25;5063544;28;20052;-72
2022/09/05 04:23:23;;;;;;;4.85;3.13;;;;;;;13.91;100.00;100835.03;5056757;28;20033;-72
2022/09/05 04:26:11;;;;;;;4.05;3.00;;;;;;;13.75;100.00;100814.75;5039611;28;20021;-72
2022/09/05 04:28:52;;;;;;;4.72;3.03;;;;;;;13.75;100.00;100819.22;5050293;28;20118;-72
2022/09/05 04:31:57;;;;;;;5.85;3.25;;;;;;;13.80;100.00;100831.22;5055323;28;21631;-72
2022/09/05 04:34:51;;;;;;;6.90;3.22;;;;;;;13.68;100.00;100813.44;5038995;28;20475;-72
2022/09/05 04:37:35;;;;;;;7.68;3.70;;;;;;;13.74;100.00;100830.72;5052215;28;20106;-72
2022/09/05 04:40:32;;;;;;;5.47;3.90;;;;;;;13.74;100.00;100828.94;5062603;28;20569;-72
2022/09/05 04:43:04;;;;;;;6.82;4.05;;;;;;;13.75;100.00;100832.44;5056076;28;20038;-72
2022/09/05 04:45:35;;;;;;;4.50;3.22;;;;;;;13.71;100.00;100830.88;5049949;28;20132;-72
2022/09/05 04:48:02;;;;;;;8.75;3.67;;;;;;;13.62;100.00;100818.22;5055699;28;20070;-72
2022/09/05 04:50:28;;;;;;;5.60;3.58;;;;;;;13.56;100.00;100813.25;5042072;28;20029;-72
2022/09/05 04:53:15;;;;;;;6.72;3.92;;;;;;;13.64;100.00;100838.31;5060052;28;20433;-72
2022/09/05 04:55:43;;;;;;;7.07;3.55;;;;;;;13.59;100.00;100835.06;5052134;28;20041;-72
2022/09/05 04:58:25;;;;;;;6.22;3.90;;;;;;;13.52;100.00;100827.59;5059270;28;20143;-72
2022/09/05 05:00:56;;;;;;;5.18;3.40;;;;;;;13.47;100.00;100829.59;5046830;28;20032;-72
2022/09/05 05:03:26;;;;;;;4.85;3.20;;;;;;;13.50;100.00;100834.72;5061951;28;20395;-72
2022/09/05 05:05:56;;;;;;;4.97;3.45;;;;;;;13.48;100.00;100831.31;5051260;28;20390;-72
2022/09/05 05:08:42;;;;;;;4.35;3.05;;;;;;;13.50;100.00;100835.56;5061760;28;20025;-72
2022/09/05 05:11:24;;;;;;;6.28;3.42;;;;;;;13.50;100.00;100840.00;5052659;28;20064;-72
2022/09/05 05:13:57;;;;;;;5.85;3.28;;;;;;;13.23;100.00;100806.25;5051553;28;20036;-72
2022/09/05 05:16:46;;;;;;;6.03;3.83;;;;;;;13.46;100.00;100841.94;5050896;28;20025;-72
2022/09/05 05:19:26;;;;;;;4.90;3.58;;;;;;;13.52;100.00;100856.63;5018251;28;20044;-72
2022/09/05 05:21:55;;;;;;;11.90;4.20;;;;;;;13.50;100.00;100851.41;5044370;28;20037;-72
2022/09/05 05:24:27;;;;;;;6.30;3.38;;;;;;;13.37;100.00;100829.25;5057102;28;20080;-72
2022/09/05 05:27:14;;;;;;;7.45;3.97;;;;;;;13.52;100.00;100859.25;5048241;28;20028;-72
2022/09/05 05:29:50;;;;;;;6.07;3.42;;;;;;;13.54;100.00;100860.03;5050114;28;20025;-72
2022/09/05 05:32:33;;;;;;;5.25;3.22;;;;;;;13.50;100.00;100853.19;5050896;28;20083;-72
2022/09/05 05:35:07;;;;;;;8.75;4.10;;;;;;;13.54;100.00;100862.66;5047678;28;20060;-72
2022/09/05 05:37:39;;;;;;;6.45;3.00;;;;;;;13.42;100.00;100842.22;5035332;28;20029;-72
2022/09/05 05:40:10;;;;;;;5.13;3.55;;;;;;;13.56;100.00;100860.78;5049900;28;20129;-73
2022/09/05 05:42:38;;;;;;;6.55;3.55;;;;;;;13.51;100.00;100841.72;5058443;28;20036;-72
2022/09/05 05:45:15;;;;;;;5.10;3.85;;;;;;;13.62;100.00;100856.00;5066058;28;20051;-72
2022/09/05 05:47:45;;;;;;;8.35;3.80;;;;;;;13.69;100.00;100859.16;5047667;28;20036;-72
2022/09/05 05:50:22;;;;;;;7.15;4.10;;;;;;;13.75;100.00;100866.75;5045088;28;20084;-71
2022/09/05 05:52:50;;;;;;;4.65;3.35;;;;;;;13.81;100.00;100872.56;5043690;28;20379;-72
2022/09/05 05:55:37;;;;;;;7.03;3.50;;;;;;;13.90;100.00;100879.09;5049959;28;20494;-72
2022/09/05 05:58:20;;;;;;;5.07;3.88;;;;;;;13.99;100.00;100875.94;5050755;28;20375;-72
2022/09/05 06:01:05;;;;;;;4.70;3.38;;;;;;;14.07;100.00;100873.72;5050048;28;20898;-71
2022/09/05 06:03:55;;;;;;;5.03;3.10;;;;;;;14.15;100.00;100876.78;5061089;28;20032;-71
2022/09/05 06:06:30;;;;;;;4.60;3.25;;;;;;;14.25;100.00;100875.31;5045149;28;20033;-72
2022/09/05 06:09:04;;;;;;;5.03;3.42;;;;;;;14.32;100.00;100878.47;5053185;28;20071;-72
2022/09/05 06:11:50;;;;;;;5.78;3.22;;;;;;;14.25;100.00;100851.53;5047464;28;20040;-72
2022/09/05 06:14:48;;;;;;;8.10;3.60;;;;;;;14.51;100.00;100870.31;5046393;28;20024;-72
2022/09/05 06:17:35;;;;;;;5.32;3.10;;;;;;;14.57;100.00;100878.75;5041352;28;20071;-72
2022/09/05 06:20:19;;;;;;;5.28;2.70;;;;;;;14.66;100.00;100880.00;5038911;28;20479;-72
2022/09/05 06:23:19;;;;;;;3.78;2.50;;;;;;;14.77;100.00;100882.84;5048495;28;20503;-72
2022/09/05 06:25:53;;;;;;;6.15;3.53;;;;;;;14.86;100.00;100884.09;5049829;28;20495;-72
2022/09/05 06:28:36;;;;;;;3.58;2.65;;;;;;;14.96;100.00;100891.41;5050356;28;20028;-72
2022/09/05 06:31:33;;;;;;;7.22;3.25;;;;;;;15.07;100.00;100888.94;5049529;28;20032;-71
2022/09/05 06:34:23;;;;;;;7.55;3.30;;;;;;;15.21;100.00;100896.91;5047695;28;20025;-71
2022/09/05 06:36:51;;;;;;;4.57;3.05;;;;;;;15.33;100.00;100901.47;5037360;28;20108;-72
2022/09/05 06:39:38;;;;;;;14.38;3.45;;;;;;;15.37;100.00;100886.22;5049776;28;20025;-72
2022/09/05 06:42:10;;;;;;;3.65;2.55;;;;;;;15.58;100.00;100900.78;5042324;28;20951;-72
2022/09/05 06:45:06;;;;;;;6.03;3.35;;;;;;;15.72;100.00;100897.28;5037611;28;20069;-72
2022/09/05 06:47:33;;;;;;;7.20;3.35;;;;;;;15.84;100.00;100896.50;5038161;28;20035;-71
2022/09/05 06:50:01;;;;;;;6.15;3.55;;;;;;;15.96;100.00;100895.72;5050085;28;20099;-72
2022/09/05 06:52:57;;;;;;;5.38;2.67;;;;;;;16.11;100.00;100900.03;5048055;28;20491;-71
2022/09/05 06:55:43;;;;;;;6.45;2.70;;;;;;;16.25;100.00;100897.34;5008660;28;20025;-71
2022/09/05 06:59:01;;;;;;;7.18;2.88;;;;;;;16.36;100.00;100899.25;5026906;28;20490;-72
2022/09/05 07:01:30;;;;;;;4.78;2.75;;;;;;;16.49;100.00;100894.00;5029852;28;20496;-71
2022/09/05 07:04:02;;;;;;;5.32;3.08;;;;;;;16.65;100.00;100900.00;5045488;28;20029;-72
2022/09/05 07:06:37;;;;;;;7.88;3.05;;;;;;;16.78;100.00;100893.78;5030354;28;20478;-72
2022/09/05 07:09:19;;;;;;;3.65;2.25;;;;;;;16.93;100.00;100893.69;5029146;28;20024;-72
2022/09/05 07:11:50;;;;;;;4.68;2.40;;;;;;;17.10;100.00;100894.22;5045753;28;20112;-71
2022/09/05 07:14:24;;;;;;;4.03;2.35;;;;;;;17.22;100.00;100895.19;5062512;28;20474;-71
2022/09/05 07:16:52;;;;;;;5.18;2.38;;;;;;;17.31;100.00;100895.38;5049409;28;20037;-72
2022/09/05 07:19:25;;;;;;;3.97;2.20;;;;;;;17.42;100.00;100891.13;5034645;28;20032;-71
2022/09/05 07:22:13;;;;;;;8.75;2.72;;;;;;;17.55;100.00;100898.09;5048679;28;20040;-72
2022/09/05 07:24:46;;;;;;;4.53;2.38;;;;;;;17.68;100.00;100900.78;5045026;28;20609;-72
2022/09/05 07:27:43;;;;;;;4.97;2.35;;;;;;;17.81;100.00;100905.09;5035170;28;20025;-72
2022/09/05 07:30:12;;;;;;;4.28;2.17;;;;;;;17.98;100.00;100911.84;5042865;28;20037;-72
2022/09/05 07:32:43;;;;;;;4.65;2.17;;;;;;;18.13;100.00;100907.22;5053716;28;20040;-72
2022/09/05 07:35:16;;;;;;;4.63;2.30;;;;;;;18.25;100.00;100914.34;5067792;28;20028;-71
2022/09/05 07:37:44;;;;;;;4.05;2.22;;;;;;;18.33;100.00;100910.13;5053285;28;20029;-71
2022/09/05 07:40:14;;;;;;;5.57;2.13;;;;;;;18.48;100.00;100915.28;5057690;28;20037;-71
2022/09/05 07:42:55;;;;;;;6.20;2.90;;;;;;;18.57;100.00;100909.28;5064325;28;20040;-71
2022/09/05 07:45:26;;;;;;;7.00;2.50;;;;;;;18.70;100.00;100904.72;5065749;28;20043;-71
2022/09/05 07:48:02;;;;;;;8.82;2.45;;;;;;;18.78;100.00;100915.66;5068627;28;20034;-71
2022/09/05 07:50:27;;;;;;;3.92;2.13;;;;;;;18.79;100.00;100904.88;5066051;28;20025;-71
2022/09/05 07:52:56;;;;;;;3.45;1.70;;;;;;;18.97;100.00;100921.28;5062644;28;20039;-72
2022/09/05 07:55:30;;;;;;;9.25;2.58;;;;;;;19.04;100.00;100914.50;5047880;28;20444;-71
2022/09/05 07:57:58;;;;;;;3.08;1.90;;;;;;;19.13;100.00;100913.78;5035901;28;20597;-71
2022/09/05 08:00:25;;;;;;;3.08;1.77;;;;;;;19.13;100.00;100900.47;5051844;28;20033;-71
2022/09/05 08:02:51;;;;;;;5.55;2.13;;;;;;;19.34;100.00;100914.78;5054232;28;20514;-72
2022/09/05 08:05:19;;;;;;;3.80;2.00;;;;;;;19.51;100.00;100909.97;5034656;28;20056;-73
2022/09/05 08:07:49;;;;;;;4.40;2.10;;;;;;;19.72;100.00;100916.28;5051621;28;20035;-72
2022/09/05 08:10:22;;;;;;;5.53;1.77;;;;;;;19.94;100.00;100926.91;5053515;28;20032;-72
2022/09/05 08:12:58;;;;;;;12.25;2.58;;;;;;;20.03;100.00;100912.84;5036592;28;20083;-72
2022/09/05 08:15:26;;;;;;;4.35;2.15;;;;;;;20.22;100.00;100913.03;5047951;28;20407;-73
2022/09/05 08:18:10;;;;;;;5.43;2.13;;;;;;;20.44;100.00;100924.66;5063084;28;20383;-73
2022/09/05 08:20:41;;;;;;;3.80;2.10;;;;;;;20.60;100.00;100925.91;5049873;28;20119;-72
2022/09/05 08:23:43;;;;;;;3.15;1.70;;;;;;;20.80;100.00;100914.41;5062122;28;20032;-71
2022/09/05 08:26:12;;;;;;;10.77;2.30;;;;;;;20.97;100.00;100923.66;5055751;28;20064;-71
2022/09/05 08:29:02;;;;;;;4.60;2.00;;;;;;;21.06;100.00;100912.19;5044374;28;20518;-71
2022/09/05 08:31:37;;;;;;;4.70;1.90;;;;;;;21.21;100.00;100921.59;5056196;28;20387;-71
2022/09/05 08:34:03;;;;;;;5.05;2.30;;;;;;;21.26;100.00;100921.19;5052514;28;20083;-71
2022/09/05 08:36:35;;;;;;;5.35;1.80;;;;;;;21.26;100.00;100907.81;5051764;28;20103;-73
2022/09/05 08:39:02;;;;;;;5.00;1.95;;;;;;;21.29;100.00;100907.56;5050305;28;20415;-72
2022/09/05 08:41:43;;;;;;;5.13;2.15;;;;;;;21.40;100.00;100921.69;5051974;28;20094;-72
2022/09/05 08:44:23;;;;;;;4.63;2.22;;;;;;;21.50;100.00;100920.88;5040095;28;20021;-72
2022/09/05 08:46:50;;;;;;;4.22;2.47;;;;;;;21.56;100.00;100920.38;5050331;28;20040;-72
2022/09/05 08:49:36;;;;;;;7.15;2.20;;;;;;;21.61;100.00;100918.97;5053314;28;20021;-72
2022/09/05 08:52:45;;;;;;;4.88;2.30;;;;;;;21.64;100.00;100912.50;5050882;28;20029;-72
2022/09/05 08:55:17;;;;;;;4.65;2.13;;;;;;;21.74;100.00;100910.69;5049528;28;20032;-72
2022/09/05 08:57:45;;;;;;;5.95;2.20;;;;;;;21.79;100.00;100912.00;5053659;28;20041;-72
2022/09/05 09:00:18;;;;;;;5.07;2.60;;;;;;;21.89;100.00;100910.25;5052204;28;20112;-72
2022/09/05 09:03:11;;;;;;;4.05;2.38;;;;;;;22.00;100.00;100903.94;5050117;28;20057;-72
2022/09/05 09:05:56;;;;;;;4.35;2.63;;;;;;;22.14;100.00;100898.16;5062486;28;20028;-72
2022/09/05 09:08:39;;;;;;;;;;;;;;;22.27;100.00;100900.59;5052784;28;20086;-72
2022/09/05 09:11:10;;;;;;;7.55;2.30;;;;;;;22.37;100.00;100893.41;5083150;28;20302;-71
2022/09/05 09:13:51;;;;;;;13.38;2.47;;;;;;;22.49;100.00;100894.94;5060925;28;20028;-71
2022/09/05 09:16:37;;;;;;;5.13;2.15;;;;;;;22.69;100.00;100890.44;5067211;28;20028;-71
2022/09/05 09:19:04;;;;;;;7.22;2.25;;;;;;;22.78;100.00;100898.47;5061874;28;20028;-71
2022/09/05 09:21:45;;;;;;;6.55;2.70;;;;;;;22.78;100.00;100898.47;5055804;28;20032;-72
2022/09/05 09:24:16;;;;;;;5.03;2.30;;;;;;;22.80;100.00;100901.03;5051514;28;20037;-71
2022/09/05 09:27:04;;;;;;;5.63;2.03;;;;;;;22.86;100.00;100900.44;5063558;28;20041;-71
2022/09/05 09:29:33;;;;;;;3.70;1.95;;;;;;;22.83;100.00;100906.09;5069613;28;20032;-71
2022/09/05 09:32:13;;;;;;;4.65;1.85;;;;;;;22.81;100.00;100900.03;5048872;28;20495;-72
2022/09/05 09:34:50;;;;;;;3.53;1.80;;;;;;;22.86;100.00;100903.13;5051175;28;20036;-71
2022/09/05 09:37:40;;;;;;;4.15;1.73;;;;;;;22.96;100.00;100898.59;5048553;28;20032;-72
2022/09/05 09:40:30;;;;;;;3.80;1.70;;;;;;;23.10;100.00;100895.47;5042170;28;20075;-71
2022/09/05 09:43:26;;;;;;;3.60;1.80;;;;;;;23.22;100.00;100886.25;5041889;28;20056;-71
2022/09/05 09:46:39;;;;;;;3.35;1.58;;;;;;;23.39;100.00;100884.63;5071881;28;20054;-72
2022/09/05 09:49:16;;;;;;;7.43;2.10;;;;;;;23.63;100.00;100881.44;5055945;28;20063;-72
2022/09/05 09:52:01;;;;;;;11.98;2.45;;;;;;;23.74;100.00;100883.94;5063508;28;20036;-71
2022/09/05 09:54:39;;;;;;;3.03;1.67;;;;;;;23.80;100.00;100884.19;5063562;28;20032;-72
2022/09/05 09:57:13;;;;;;;4.18;1.35;;;;;;;23.92;100.00;100880.31;5051782;28;20037;-72
2022/09/05 09:59:58;;;;;;;5.93;1.50;;;;;;;24.20;100.00;100883.81;5053236;28;20402;-71
2022/09/05 10:02:35;;;;;;;3.80;1.30;;;;;;;24.47;100.00;100879.38;5065775;28;20029;-71
2022/09/05 10:05:28;;;;;;;5.80;1.65;;;;;;;24.73;98.25;100873.06;5057750;28;20608;-72
2022/09/05 10:08:12;;;;;;;5.85;1.80;;;;;;;24.87;93.07;100880.56;5054174;28;20082;-72
2022/09/05 10:11:02;;;;;;;4.03;1.52;;;;;;;25.11;91.47;100881.75;5056355;28;20044;-72
2022/09/05 10:13:56;;;;;;;4.25;1.50;;;;;;;25.39;95.63;100873.34;5034196;28;20544;-71
2022/09/05 10:16:24;;;;;;;5.15;2.13;;;;;;;25.57;92.92;100867.06;5088411;28;20028;-71
2022/09/05 10:19:27;;;;;;;5.55;2.03;;;;;;;25.67;89.25;100867.78;5049342;28;20040;-71
2022/09/05 10:22:29;;;;;;;3.08;1.40;;;;;;;25.78;84.08;100867.47;5039081;28;20033;-71
2022/09/05 10:25:03;;;;;;;5.38;1.70;;;;;;;25.75;83.71;100855.16;5050572;28;20084;-71
2022/09/05 10:27:28;;;;;;;2.72;1.35;;;;;;;25.76;85.97;100845.22;5061378;28;20931;-71
2022/09/05 10:30:39;;;;;;;4.13;1.70;;;;;;;25.85;82.54;100849.66;5062431;28;20108;-70
2022/09/05 10:33:22;;;;;;;3.45;1.55;;;;;;;25.92;83.54;100845.31;5048665;28;20098;-71
2022/09/05 10:35:50;;;;;;;4.13;1.83;;;;;;;25.98;77.99;100844.63;5040949;28;20033;-70
2022/09/05 10:38:40;;;;;;;4.25;1.85;;;;;;;26.12;84.48;100852.09;5047757;28;20054;-71
2022/09/05 10:41:09;;;;;;;3.80;1.60;;;;;;;25.96;82.41;100798.16;5046890;28;20067;-70
2022/09/05 10:44:01;;;;;;;4.95;1.60;;;;;;;26.07;78.33;100846.34;5040193;28;20017;-71
2022/09/05 10:46:44;;;;;;;3.58;1.70;;;;;;;25.98;79.88;100839.25;5048301;28;20029;-71
2022/09/05 10:49:13;;;;;;;3.05;1.25;;;;;;;26.14;80.52;100844.66;5051818;28;20021;-70
2022/09/05 10:51:44;;;;;;;3.10;1.40;;;;;;;26.30;77.42;100833.06;5055420;28;20037;-70
2022/09/05 10:54:48;;;;;;;4.78;1.73;;;;;;;26.45;74.40;100825.16;5045384;28;20104;-71
2022/09/05 10:57:49;;;;;;;4.65;1.42;;;;;;;26.64;77.97;100831.06;5032069;28;20059;-70
2022/09/05 11:00:37;;;;;;;6.22;1.10;;;;;;;26.47;74.92;100828.53;5012908;28;20045;-70
2022/09/05 11:03:03;;;;;;;3.22;1.52;;;;;;;26.25;76.27;100819.28;5050425;28;20159;-71
2022/09/05 11:05:46;;;;;;;4.38;1.45;;;;;;;26.05;75.81;100813.34;5049983;28;20103;-70
2022/09/05 11:08:31;;;;;;;4.28;1.70;;;;;;;26.13;76.50;100815.19;5048663;28;20060;-71
2022/09/05 11:11:24;;;;;;;2.83;1.38;;;;;;;26.11;73.80;100777.63;5049927;28;20087;-71
2022/09/05 11:13:53;;;;;;;4.05;1.50;;;;;;;26.78;74.90;100816.88;5049479;28;20064;-71
2022/09/05 11:16:31;;;;;;;5.18;1.60;;;;;;;27.05;71.40;100818.38;5047794;28;20547;-71
2022/09/05 11:19:06;;;;;;;3.97;1.20;;;;;;;27.14;73.13;100814.63;5050402;28;20064;-71
2022/09/05 11:21:59;;;;;;;2.70;1.20;;;;;;;27.27;73.95;100814.94;5029733;28;20108;-72
2022/09/05 11:24:55;;;;;;;4.50;1.65;;;;;;;27.76;69.04;100806.63;5046599;28;20041;-70
2022/09/05 11:27:30;;;;;;;4.57;1.35;;;;;;;28.35;71.11;100803.19;5055679;28;20388;-71
2022/09/05 11:30:05;;;;;;;3.00;1.27;;;;;;;28.86;64.73;100803.41;5046144;28;20537;-70
2022/09/05 11:33:04;;;;;;;3.88;1.27;;;;;;;29.02;67.28;100795.13;5047870;28;20037;-69
2022/09/05 11:35:48;;;;;;;2.60;1.25;;;;;;;29.04;66.77;100798.47;5049159;28;20099;-70
2022/09/05 11:38:31;;;;;;;5.70;2.30;;;;;;;29.31;69.87;100797.00;5046666;28;20025;-70
2022/09/05 11:41:41;;;;;;;3.53;1.38;;;;;;;29.67;63.50;100802.44;5053439;28;20044;-71
2022/09/05 11:44:21;;;;;;;2.70;1.35;;;;;;;30.29;65.88;100799.97;5029424;28;20134;-71
2022/09/05 11:47:08;;;;;;;2.70;1.30;;;;;;;30.27;64.49;100797.47;5047508;28;20044;-71
2022/09/05 11:49:59;;;;;;;3.95;1.65;;;;;;;29.76;58.39;100791.31;5043845;28;20036;-71
2022/09/05 11:52:56;;;;;;;3.13;1.20;;;;;;;29.91;57.38;100786.69;5032841;28;20120;-71
2022/09/05 11:55:40;;;;;;;2.08;1.00;;;;;;;31.74;54.65;100780.88;5042441;28;20417;-71
2022/09/05 11:58:19;;;;;;;3.42;1.50;;;;;;;32.13;58.16;100773.88;5026391;28;20033;-71
2022/09/05 12:01:22;;;;;;;3.80;1.48;;;;;;;31.89;57.02;100778.84;5043780;28;20044;-71
2022/09/05 12:04:33;;;;;;;3.10;1.25;;;;;;;31.33;54.33;100772.75;5057165;28;20129;-71
2022/09/05 12:07:33;;;;;;;4.63;1.67;;;;;;;31.15;51.47;100774.38;5027098;28;20073;-70
2022/09/05 12:10:14;;;;;;;8.80;1.40;;;;;;;31.08;53.33;100774.34;5027805;28;20099;-71
2022/09/05 12:13:15;;;;;;;3.83;1.40;;;;;;;31.10;58.18;100774.94;5045982;28;20486;-71
2022/09/05 12:15:45;;;;;;;3.75;1.35;;;;;;;30.84;59.22;100769.34;5052498;28;20025;-71
2022/09/05 12:18:15;;;;;;;2.80;1.40;;;;;;;30.59;59.64;100774.38;5053871;28;20025;-70
2022/09/05 12:20:48;;;;;;;6.80;1.50;;;;;;;30.52;58.14;100778.09;5051616;28;20029;-70
2022/09/05 12:23:25;;;;;;;3.42;1.13;;;;;;;30.57;57.05;100778.34;5058296;28;20040;-70
2022/09/05 12:25:56;;;;;;;2.40;1.13;;;;;;;31.09;62.98;100778.72;5038335;28;20033;-70